sensor_id;sensor_type;location;lat;lon;timestamp;temperature;humidity
12957;DHT22;6543;48.836;10.092;2023-02-26T00:01:24;-1.90;99.90
12957;DHT22;6543;48.836;10.092;2023-02-26T00:04:04;1.20;99.90
12957;DHT22;6543;48.836;10.092;2023-02-26T00:06:33;-0.60;99.90
12957;DHT22;6543;48.836;10.092;2023-02-26T00:09:02;-0.80;99.90
12957;DHT22;6543;48.836;10.092;2023-02-26T00:11:33;0.90;99.90
12957;DHT22;6543;48.836;10.092;2023-02-26T00:14:15;-0.70;99.90
12957;DHT22;6543;48.836;10.092;2023-02-26T00:20:19;-0.60;99.90
12957;DHT22;6543;48.836;10.092;2023-02-26T00:25:58;-0.70;99.90
12957;DHT22;6543;48.836;10.092;2023-02-26T00:28:50;1.40;99.90
12957;DHT22;6543;48.836;10.092;2023-02-26T00:31:22;-0.80;99.90
12957;DHT22;6543;48.836;10.092;2023-02-26T00:33:53;-1.70;99.90
12957;DHT22;6543;48.836;10.092;2023-02-26T00:36:27;-0.80;99.90
12957;DHT22;6543;48.836;10.092;2023-02-26T00:39:05;-0.80;99.90
12957;DHT22;6543;48.836;10.092;2023-02-26T00:41:33;0.70;99.90
12957;DHT22;6543;48.836;10.092;2023-02-26T00:44:02;-0.80;99.90
12957;DHT22;6543;48.836;10.092;2023-02-26T00:46:36;-0.80;99.90
12957;DHT22;6543;48.836;10.092;2023-02-26T00:49:14;-0.80;99.90
12957;DHT22;6543;48.836;10.092;2023-02-26T00:51:48;1.20;99.90
12957;DHT22;6543;48.836;10.092;2023-02-26T00:54:19;-0.80;99.90
12957;DHT22;6543;48.836;10.092;2023-02-26T00:56:47;-0.90;99.90
12957;DHT22;6543;48.836;10.092;2023-02-26T00:59:17;-0.80;99.90
12957;DHT22;6543;48.836;10.092;2023-02-26T01:01:45;1.20;99.90
12957;DHT22;6543;48.836;10.092;2023-02-26T01:04:20;-2.30;99.90
12957;DHT22;6543;48.836;10.092;2023-02-26T01:06:52;-1.20;99.90
12957;DHT22;6543;48.836;10.092;2023-02-26T01:09:25;-0.90;99.90
12957;DHT22;6543;48.836;10.092;2023-02-26T01:11:55;1.00;99.90
12957;DHT22;6543;48.836;10.092;2023-02-26T01:14:23;-1.10;99.90
12957;DHT22;6543;48.836;10.092;2023-02-26T01:16:55;-1.20;99.90
12957;DHT22;6543;48.836;10.092;2023-02-26T01:19:28;-1.20;99.90
12957;DHT22;6543;48.836;10.092;2023-02-26T01:22:04;-2.40;99.90
12957;DHT22;6543;48.836;10.092;2023-02-26T01:24:34;-2.80;99.90
12957;DHT22;6543;48.836;10.092;2023-02-26T01:27:03;0.30;99.90
12957;DHT22;6543;48.836;10.092;2023-02-26T01:29:31;-1.20;99.90
12957;DHT22;6543;48.836;10.092;2023-02-26T01:32:02;-1.20;99.90
12957;DHT22;6543;48.836;10.092;2023-02-26T01:34:35;0.70;99.90
12957;DHT22;6543;48.836;10.092;2023-02-26T01:37:18;-0.70;99.90
12957;DHT22;6543;48.836;10.092;2023-02-26T01:39:56;-1.30;99.90
12957;DHT22;6543;48.836;10.092;2023-02-26T01:42:33;-1.60;99.90
12957;DHT22;6543;48.836;10.092;2023-02-26T01:45:07;-1.40;99.90
12957;DHT22;6543;48.836;10.092;2023-02-26T01:47:40;-1.60;99.90
12957;DHT22;6543;48.836;10.092;2023-02-26T01:50:15;0.20;99.90
12957;DHT22;6543;48.836;10.092;2023-02-26T01:53:17;-1.70;99.90
12957;DHT22;6543;48.836;10.092;2023-02-26T01:55:48;-1.80;99.90
12957;DHT22;6543;48.836;10.092;2023-02-26T01:58:17;-1.90;99.90
12957;DHT22;6543;48.836;10.092;2023-02-26T02:00:48;-1.90;99.90
12957;DHT22;6543;48.836;10.092;2023-02-26T02:03:17;-1.90;99.90
12957;DHT22;6543;48.836;10.092;2023-02-26T02:05:46;-1.90;99.90
12957;DHT22;6543;48.836;10.092;2023-02-26T02:08:14;-1.00;99.90
12957;DHT22;6543;48.836;10.092;2023-02-26T02:10:46;-2.10;99.90
12957;DHT22;6543;48.836;10.092;2023-02-26T02:13:28;-0.60;99.90
12957;DHT22;6543;48.836;10.092;2023-02-26T02:16:05;-2.20;99.90
12957;DHT22;6543;48.836;10.092;2023-02-26T02:18:42;-1.00;99.90
12957;DHT22;6543;48.836;10.092;2023-02-26T02:21:43;-2.50;99.90
12957;DHT22;6543;48.836;10.092;2023-02-26T02:27:08;-2.60;99.90
12957;DHT22;6543;48.836;10.092;2023-02-26T02:29:53;-1.30;99.90
12957;DHT22;6543;48.836;10.092;2023-02-26T02:32:35;-2.40;99.90
12957;DHT22;6543;48.836;10.092;2023-02-26T02:35:10;-2.40;99.90
12957;DHT22;6543;48.836;10.092;2023-02-26T02:37:42;-2.50;99.90
12957;DHT22;6543;48.836;10.092;2023-02-26T02:40:14;-2.40;99.90
12957;DHT22;6543;48.836;10.092;2023-02-26T02:42:44;-1.50;99.90
12957;DHT22;6543;48.836;10.092;2023-02-26T02:45:17;-2.30;99.90
12957;DHT22;6543;48.836;10.092;2023-02-26T02:47:49;-2.50;99.90
12957;DHT22;6543;48.836;10.092;2023-02-26T02:50:22;-0.70;99.90
12957;DHT22;6543;48.836;10.092;2023-02-26T02:56:19;-2.50;99.90
12957;DHT22;6543;48.836;10.092;2023-02-26T02:58:52;-0.50;99.90
12957;DHT22;6543;48.836;10.092;2023-02-26T03:01:24;-1.00;99.90
12957;DHT22;6543;48.836;10.092;2023-02-26T03:03:57;-1.10;99.90
12957;DHT22;6543;48.836;10.092;2023-02-26T03:06:27;-2.50;99.90
12957;DHT22;6543;48.836;10.092;2023-02-26T03:08:54;-2.60;99.90
12957;DHT22;6543;48.836;10.092;2023-02-26T03:11:22;-2.70;99.90
12957;DHT22;6543;48.836;10.092;2023-02-26T03:13:49;-2.60;99.90
12957;DHT22;6543;48.836;10.092;2023-02-26T03:16:38;-2.60;99.90
12957;DHT22;6543;48.836;10.092;2023-02-26T03:19:17;-2.60;99.90
12957;DHT22;6543;48.836;10.092;2023-02-26T03:21:50;-2.50;99.90
12957;DHT22;6543;48.836;10.092;2023-02-26T03:24:25;-2.50;99.90
12957;DHT22;6543;48.836;10.092;2023-02-26T03:26:58;-1.10;99.90
12957;DHT22;6543;48.836;10.092;2023-02-26T03:29:31;-2.60;99.90
12957;DHT22;6543;48.836;10.092;2023-02-26T03:32:02;-2.50;99.90
12957;DHT22;6543;48.836;10.092;2023-02-26T03:34:38;-2.60;99.90
12957;DHT22;6543;48.836;10.092;2023-02-26T03:37:07;-2.70;99.90
12957;DHT22;6543;48.836;10.092;2023-02-26T03:39:40;-2.80;99.90
12957;DHT22;6543;48.836;10.092;2023-02-26T03:42:19;-4.10;99.90
12957;DHT22;6543;48.836;10.092;2023-02-26T03:44:54;-1.40;99.90
12957;DHT22;6543;48.836;10.092;2023-02-26T03:47:22;-3.00;99.90
12957;DHT22;6543;48.836;10.092;2023-02-26T03:49:54;-0.90;99.90
12957;DHT22;6543;48.836;10.092;2023-02-26T03:52:24;-3.10;99.90
12957;DHT22;6543;48.836;10.092;2023-02-26T03:54:55;-2.30;99.90
12957;DHT22;6543;48.836;10.092;2023-02-26T03:57:24;-2.00;99.90
12957;DHT22;6543;48.836;10.092;2023-02-26T03:59:51;-2.70;99.90
12957;DHT22;6543;48.836;10.092;2023-02-26T04:02:21;-2.00;99.90
12957;DHT22;6543;48.836;10.092;2023-02-26T04:04:55;-3.10;99.90
12957;DHT22;6543;48.836;10.092;2023-02-26T04:07:23;-1.20;99.90
12957;DHT22;6543;48.836;10.092;2023-02-26T04:09:50;-1.30;99.90
12957;DHT22;6543;48.836;10.092;2023-02-26T04:12:20;-3.10;99.90
12957;DHT22;6543;48.836;10.092;2023-02-26T04:14:47;-3.20;99.90
12957;DHT22;6543;48.836;10.092;2023-02-26T04:17:14;-1.30;99.90
12957;DHT22;6543;48.836;10.092;2023-02-26T04:19:42;-3.40;99.90
12957;DHT22;6543;48.836;10.092;2023-02-26T04:22:11;-3.20;99.90
12957;DHT22;6543;48.836;10.092;2023-02-26T04:24:41;-4.10;99.90
12957;DHT22;6543;48.836;10.092;2023-02-26T04:27:08;-3.40;99.90
12957;DHT22;6543;48.836;10.092;2023-02-26T04:29:38;-1.20;99.90
12957;DHT22;6543;48.836;10.092;2023-02-26T04:32:05;-3.40;99.90
12957;DHT22;6543;48.836;10.092;2023-02-26T04:34:35;-1.90;99.90
12957;DHT22;6543;48.836;10.092;2023-02-26T04:37:02;-1.50;99.90
12957;DHT22;6543;48.836;10.092;2023-02-26T04:39:30;-3.50;99.90
12957;DHT22;6543;48.836;10.092;2023-02-26T04:41:58;-1.60;99.90
12957;DHT22;6543;48.836;10.092;2023-02-26T04:44:25;-2.80;99.90
12957;DHT22;6543;48.836;10.092;2023-02-26T04:46:52;-1.90;99.90
12957;DHT22;6543;48.836;10.092;2023-02-26T04:49:19;-2.40;99.90
12957;DHT22;6543;48.836;10.092;2023-02-26T04:51:46;-3.80;99.90
12957;DHT22;6543;48.836;10.092;2023-02-26T04:54:13;-2.10;99.90
12957;DHT22;6543;48.836;10.092;2023-02-26T04:56:43;-2.50;99.90
12957;DHT22;6543;48.836;10.092;2023-02-26T04:59:10;-2.80;99.90
12957;DHT22;6543;48.836;10.092;2023-02-26T05:01:37;-4.00;99.90
12957;DHT22;6543;48.836;10.092;2023-02-26T05:04:04;-2.90;99.90
12957;DHT22;6543;48.836;10.092;2023-02-26T05:06:31;-3.30;99.90
12957;DHT22;6543;48.836;10.092;2023-02-26T05:08:58;-3.90;99.90
12957;DHT22;6543;48.836;10.092;2023-02-26T05:11:25;-2.00;99.90
12957;DHT22;6543;48.836;10.092;2023-02-26T05:13:53;-4.70;99.90
12957;DHT22;6543;48.836;10.092;2023-02-26T05:16:20;-1.40;99.90
12957;DHT22;6543;48.836;10.092;2023-02-26T05:18:48;-1.40;99.90
12957;DHT22;6543;48.836;10.092;2023-02-26T05:21:15;-3.40;99.90
12957;DHT22;6543;48.836;10.092;2023-02-26T05:23:44;-1.20;99.90
12957;DHT22;6543;48.836;10.092;2023-02-26T05:26:11;-3.30;99.90
12957;DHT22;6543;48.836;10.092;2023-02-26T05:28:41;-1.80;99.90
12957;DHT22;6543;48.836;10.092;2023-02-26T05:31:11;-1.20;99.90
12957;DHT22;6543;48.836;10.092;2023-02-26T05:33:39;-3.10;99.90
12957;DHT22;6543;48.836;10.092;2023-02-26T05:36:06;-3.00;99.90
12957;DHT22;6543;48.836;10.092;2023-02-26T05:38:33;-3.20;99.90
12957;DHT22;6543;48.836;10.092;2023-02-26T05:41:01;-1.00;99.90
12957;DHT22;6543;48.836;10.092;2023-02-26T05:43:28;-1.10;99.90
12957;DHT22;6543;48.836;10.092;2023-02-26T05:45:56;-1.50;99.90
12957;DHT22;6543;48.836;10.092;2023-02-26T05:48:24;-2.70;99.90
12957;DHT22;6543;48.836;10.092;2023-02-26T05:50:52;-1.30;99.90
12957;DHT22;6543;48.836;10.092;2023-02-26T05:53:22;-1.80;99.90
12957;DHT22;6543;48.836;10.092;2023-02-26T05:55:49;-0.60;99.90
12957;DHT22;6543;48.836;10.092;2023-02-26T05:58:16;-2.40;99.90
12957;DHT22;6543;48.836;10.092;2023-02-26T06:00:43;-1.80;99.90
12957;DHT22;6543;48.836;10.092;2023-02-26T06:03:10;-3.50;99.90
12957;DHT22;6543;48.836;10.092;2023-02-26T06:05:38;-3.00;99.90
12957;DHT22;6543;48.836;10.092;2023-02-26T06:08:05;-0.90;99.90
12957;DHT22;6543;48.836;10.092;2023-02-26T06:10:33;-2.10;99.90
12957;DHT22;6543;48.836;10.092;2023-02-26T06:13:00;-3.20;99.90
12957;DHT22;6543;48.836;10.092;2023-02-26T06:15:27;-3.20;99.90
12957;DHT22;6543;48.836;10.092;2023-02-26T06:17:54;-2.90;99.90
12957;DHT22;6543;48.836;10.092;2023-02-26T06:20:21;-3.10;99.90
12957;DHT22;6543;48.836;10.092;2023-02-26T06:22:50;-3.00;99.90
12957;DHT22;6543;48.836;10.092;2023-02-26T06:25:17;-1.10;99.90
12957;DHT22;6543;48.836;10.092;2023-02-26T06:27:44;-2.30;99.90
12957;DHT22;6543;48.836;10.092;2023-02-26T06:30:12;-3.00;99.90
12957;DHT22;6543;48.836;10.092;2023-02-26T06:32:39;-3.00;99.90
12957;DHT22;6543;48.836;10.092;2023-02-26T06:35:07;-2.90;99.90
12957;DHT22;6543;48.836;10.092;2023-02-26T06:37:34;-2.90;99.90
12957;DHT22;6543;48.836;10.092;2023-02-26T06:40:04;-3.00;99.90
12957;DHT22;6543;48.836;10.092;2023-02-26T06:42:32;-3.00;99.90
12957;DHT22;6543;48.836;10.092;2023-02-26T06:45:02;-2.90;99.90
12957;DHT22;6543;48.836;10.092;2023-02-26T06:47:30;-2.80;99.90
12957;DHT22;6543;48.836;10.092;2023-02-26T06:49:57;-1.60;99.90
12957;DHT22;6543;48.836;10.092;2023-02-26T06:52:24;-2.90;99.90
12957;DHT22;6543;48.836;10.092;2023-02-26T06:54:51;-2.80;99.90
12957;DHT22;6543;48.836;10.092;2023-02-26T06:57:24;-2.80;99.90
12957;DHT22;6543;48.836;10.092;2023-02-26T06:59:51;-3.60;99.90
12957;DHT22;6543;48.836;10.092;2023-02-26T07:02:21;-1.00;99.90
12957;DHT22;6543;48.836;10.092;2023-02-26T07:04:50;-2.60;99.90
12957;DHT22;6543;48.836;10.092;2023-02-26T07:07:19;-1.90;99.90
12957;DHT22;6543;48.836;10.092;2023-02-26T07:09:46;-1.00;99.90
12957;DHT22;6543;48.836;10.092;2023-02-26T07:12:14;-3.10;99.90
12957;DHT22;6543;48.836;10.092;2023-02-26T07:14:42;-1.80;99.90
12957;DHT22;6543;48.836;10.092;2023-02-26T07:17:10;-0.80;99.90
12957;DHT22;6543;48.836;10.092;2023-02-26T07:19:45;-0.60;99.90
12957;DHT22;6543;48.836;10.092;2023-02-26T07:22:12;-3.30;99.90
12957;DHT22;6543;48.836;10.092;2023-02-26T07:24:42;-1.20;99.90
12957;DHT22;6543;48.836;10.092;2023-02-26T07:27:11;-1.50;99.90
12957;DHT22;6543;48.836;10.092;2023-02-26T07:29:38;-2.30;99.90
12957;DHT22;6543;48.836;10.092;2023-02-26T07:32:09;-0.60;99.90
12957;DHT22;6543;48.836;10.092;2023-02-26T07:34:38;-2.60;99.90
12957;DHT22;6543;48.836;10.092;2023-02-26T07:37:05;-0.60;99.90
12957;DHT22;6543;48.836;10.092;2023-02-26T07:39:33;-1.20;99.90
12957;DHT22;6543;48.836;10.092;2023-02-26T07:42:02;-2.40;99.90
12957;DHT22;6543;48.836;10.092;2023-02-26T07:44:29;-2.10;99.90
12957;DHT22;6543;48.836;10.092;2023-02-26T07:46:56;-3.90;99.90
12957;DHT22;6543;48.836;10.092;2023-02-26T07:49:28;-3.10;99.90
12957;DHT22;6543;48.836;10.092;2023-02-26T07:51:59;-0.30;99.90
12957;DHT22;6543;48.836;10.092;2023-02-26T07:54:26;-0.90;99.90
12957;DHT22;6543;48.836;10.092;2023-02-26T07:56:53;-0.80;99.90
12957;DHT22;6543;48.836;10.092;2023-02-26T07:59:20;0.00;99.90
12957;DHT22;6543;48.836;10.092;2023-02-26T08:01:49;-0.40;99.90
12957;DHT22;6543;48.836;10.092;2023-02-26T08:04:16;-0.20;99.90
12957;DHT22;6543;48.836;10.092;2023-02-26T08:06:45;0.30;99.90
12957;DHT22;6543;48.836;10.092;2023-02-26T08:09:12;-0.40;99.90
12957;DHT22;6543;48.836;10.092;2023-02-26T08:11:39;-1.60;99.90
12957;DHT22;6543;48.836;10.092;2023-02-26T08:14:08;-1.60;99.90
12957;DHT22;6543;48.836;10.092;2023-02-26T08:16:35;0.20;99.90
12957;DHT22;6543;48.836;10.092;2023-02-26T08:19:02;-0.30;99.90
12957;DHT22;6543;48.836;10.092;2023-02-26T08:21:29;0.20;99.90
12957;DHT22;6543;48.836;10.092;2023-02-26T08:24:00;-1.50;99.90
12957;DHT22;6543;48.836;10.092;2023-02-26T08:26:30;-1.60;99.90
12957;DHT22;6543;48.836;10.092;2023-02-26T08:28:57;-1.60;99.90
12957;DHT22;6543;48.836;10.092;2023-02-26T08:31:24;-1.60;99.90
12957;DHT22;6543;48.836;10.092;2023-02-26T08:33:52;0.10;99.90
12957;DHT22;6543;48.836;10.092;2023-02-26T08:36:19;-0.20;99.90
12957;DHT22;6543;48.836;10.092;2023-02-26T08:38:47;-1.40;99.90
12957;DHT22;6543;48.836;10.092;2023-02-26T08:41:15;-0.40;99.90
12957;DHT22;6543;48.836;10.092;2023-02-26T08:43:43;-1.10;99.90
12957;DHT22;6543;48.836;10.092;2023-02-26T08:46:10;0.60;99.90
12957;DHT22;6543;48.836;10.092;2023-02-26T08:48:37;-2.40;99.90
12957;DHT22;6543;48.836;10.092;2023-02-26T08:51:04;0.10;99.90
12957;DHT22;6543;48.836;10.092;2023-02-26T08:53:31;-1.20;99.90
12957;DHT22;6543;48.836;10.092;2023-02-26T08:55:58;-0.70;99.90
12957;DHT22;6543;48.836;10.092;2023-02-26T08:58:26;0.80;99.90
12957;DHT22;6543;48.836;10.092;2023-02-26T09:00:53;-1.50;99.90
12957;DHT22;6543;48.836;10.092;2023-02-26T09:03:20;-1.30;99.90
12957;DHT22;6543;48.836;10.092;2023-02-26T09:05:47;-1.30;99.90
12957;DHT22;6543;48.836;10.092;2023-02-26T09:08:16;-2.10;99.90
12957;DHT22;6543;48.836;10.092;2023-02-26T09:10:45;-0.90;99.90
12957;DHT22;6543;48.836;10.092;2023-02-26T09:13:13;-1.00;99.90
12957;DHT22;6543;48.836;10.092;2023-02-26T09:15:42;0.10;99.90
12957;DHT22;6543;48.836;10.092;2023-02-26T09:18:09;-1.20;99.90
12957;DHT22;6543;48.836;10.092;2023-02-26T09:20:40;-1.30;99.90
12957;DHT22;6543;48.836;10.092;2023-02-26T09:23:08;0.80;99.90
12957;DHT22;6543;48.836;10.092;2023-02-26T09:25:35;-1.70;99.90
12957;DHT22;6543;48.836;10.092;2023-02-26T09:28:02;-0.40;99.90
12957;DHT22;6543;48.836;10.092;2023-02-26T09:30:29;-1.00;99.90
12957;DHT22;6543;48.836;10.092;2023-02-26T09:33:01;-0.20;99.90
12957;DHT22;6543;48.836;10.092;2023-02-26T09:35:28;1.10;99.90
12957;DHT22;6543;48.836;10.092;2023-02-26T09:37:55;-1.00;99.90
12957;DHT22;6543;48.836;10.092;2023-02-26T09:40:27;-0.80;99.90
12957;DHT22;6543;48.836;10.092;2023-02-26T09:43:06;-0.70;99.90
12957;DHT22;6543;48.836;10.092;2023-02-26T09:45:39;-0.90;99.90
12957;DHT22;6543;48.836;10.092;2023-02-26T09:48:11;-1.10;99.90
12957;DHT22;6543;48.836;10.092;2023-02-26T09:50:44;-1.00;99.90
12957;DHT22;6543;48.836;10.092;2023-02-26T09:53:16;-0.80;99.90
12957;DHT22;6543;48.836;10.092;2023-02-26T09:55:46;1.30;99.90
12957;DHT22;6543;48.836;10.092;2023-02-26T09:58:20;0.10;99.90
12957;DHT22;6543;48.836;10.092;2023-02-26T10:00:55;1.10;99.90
12957;DHT22;6543;48.836;10.092;2023-02-26T10:03:36;-2.30;99.90
12957;DHT22;6543;48.836;10.092;2023-02-26T10:06:19;0.80;99.90
12957;DHT22;6543;48.836;10.092;2023-02-26T10:09:03;-0.30;99.90
12957;DHT22;6543;48.836;10.092;2023-02-26T10:11:38;1.00;99.90
12957;DHT22;6543;48.836;10.092;2023-02-26T10:14:14;1.50;99.90
12957;DHT22;6543;48.836;10.092;2023-02-26T10:16:44;-0.40;99.90
12957;DHT22;6543;48.836;10.092;2023-02-26T10:19:17;0.10;99.90
12957;DHT22;6543;48.836;10.092;2023-02-26T10:21:47;0.70;99.90
12957;DHT22;6543;48.836;10.092;2023-02-26T10:24:20;-0.20;99.90
12957;DHT22;6543;48.836;10.092;2023-02-26T10:26:52;1.00;99.90
12957;DHT22;6543;48.836;10.092;2023-02-26T10:29:24;-0.30;99.90
12957;DHT22;6543;48.836;10.092;2023-02-26T10:32:11;1.30;99.90
12957;DHT22;6543;48.836;10.092;2023-02-26T10:34:50;1.00;99.90
12957;DHT22;6543;48.836;10.092;2023-02-26T10:37:18;-0.10;99.90
12957;DHT22;6543;48.836;10.092;2023-02-26T10:39:49;-0.10;99.90
12957;DHT22;6543;48.836;10.092;2023-02-26T10:42:24;0.10;99.90
12957;DHT22;6543;48.836;10.092;2023-02-26T10:45:18;2.20;99.90
12957;DHT22;6543;48.836;10.092;2023-02-26T10:48:05;0.10;99.90
12957;DHT22;6543;48.836;10.092;2023-02-26T10:50:38;0.00;99.90
12957;DHT22;6543;48.836;10.092;2023-02-26T10:53:09;1.90;99.90
12957;DHT22;6543;48.836;10.092;2023-02-26T10:55:40;2.00;99.90
12957;DHT22;6543;48.836;10.092;2023-02-26T10:58:11;-0.30;99.90
12957;DHT22;6543;48.836;10.092;2023-02-26T11:00:40;0.30;99.90
12957;DHT22;6543;48.836;10.092;2023-02-26T11:03:13;0.10;99.90
12957;DHT22;6543;48.836;10.092;2023-02-26T11:05:42;1.50;99.90
12957;DHT22;6543;48.836;10.092;2023-02-26T11:08:14;1.80;99.90
12957;DHT22;6543;48.836;10.092;2023-02-26T11:10:46;-0.20;99.90
12957;DHT22;6543;48.836;10.092;2023-02-26T11:13:14;1.90;99.90
12957;DHT22;6543;48.836;10.092;2023-02-26T11:15:42;2.40;99.90
12957;DHT22;6543;48.836;10.092;2023-02-26T11:18:13;1.90;99.90
12957;DHT22;6543;48.836;10.092;2023-02-26T11:20:46;0.80;99.90
12957;DHT22;6543;48.836;10.092;2023-02-26T11:23:23;0.50;99.90
12957;DHT22;6543;48.836;10.092;2023-02-26T11:26:03;-0.10;99.90
12957;DHT22;6543;48.836;10.092;2023-02-26T11:28:48;1.90;99.90
12957;DHT22;6543;48.836;10.092;2023-02-26T11:31:21;0.70;99.90
12957;DHT22;6543;48.836;10.092;2023-02-26T11:34:01;0.90;99.90
12957;DHT22;6543;48.836;10.092;2023-02-26T11:36:45;0.80;99.90
12957;DHT22;6543;48.836;10.092;2023-02-26T11:39:16;0.60;99.90
12957;DHT22;6543;48.836;10.092;2023-02-26T11:41:59;1.80;99.90
12957;DHT22;6543;48.836;10.092;2023-02-26T11:44:46;0.30;99.90
12957;DHT22;6543;48.836;10.092;2023-02-26T11:47:15;0.90;99.90
12957;DHT22;6543;48.836;10.092;2023-02-26T11:49:50;0.50;99.90
12957;DHT22;6543;48.836;10.092;2023-02-26T11:52:27;1.80;99.90
12957;DHT22;6543;48.836;10.092;2023-02-26T11:55:15;1.50;99.90
12957;DHT22;6543;48.836;10.092;2023-02-26T11:57:45;0.40;99.90
12957;DHT22;6543;48.836;10.092;2023-02-26T12:00:30;0.20;99.90
12957;DHT22;6543;48.836;10.092;2023-02-26T12:03:09;2.30;99.90
12957;DHT22;6543;48.836;10.092;2023-02-26T12:05:43;0.50;99.90
12957;DHT22;6543;48.836;10.092;2023-02-26T12:08:17;0.50;99.90
12957;DHT22;6543;48.836;10.092;2023-02-26T12:10:58;2.30;99.90
12957;DHT22;6543;48.836;10.092;2023-02-26T12:13:37;-0.50;99.90
12957;DHT22;6543;48.836;10.092;2023-02-26T12:16:16;2.10;99.90
12957;DHT22;6543;48.836;10.092;2023-02-26T12:19:02;2.10;99.90
12957;DHT22;6543;48.836;10.092;2023-02-26T12:21:56;2.50;99.90
12957;DHT22;6543;48.836;10.092;2023-02-26T12:24:41;1.20;99.90
12957;DHT22;6543;48.836;10.092;2023-02-26T12:27:20;1.00;99.90
12957;DHT22;6543;48.836;10.092;2023-02-26T12:30:12;-0.70;99.90
12957;DHT22;6543;48.836;10.092;2023-02-26T12:33:04;1.10;99.90
12957;DHT22;6543;48.836;10.092;2023-02-26T12:35:54;1.00;99.90
12957;DHT22;6543;48.836;10.092;2023-02-26T12:38:28;0.90;99.90
12957;DHT22;6543;48.836;10.092;2023-02-26T12:41:14;1.20;99.90
12957;DHT22;6543;48.836;10.092;2023-02-26T12:43:46;1.40;99.90
12957;DHT22;6543;48.836;10.092;2023-02-26T12:46:21;2.00;99.90
12957;DHT22;6543;48.836;10.092;2023-02-26T12:49:19;1.20;99.90
12957;DHT22;6543;48.836;10.092;2023-02-26T12:52:15;1.40;99.90
12957;DHT22;6543;48.836;10.092;2023-02-26T12:54:59;2.20;99.90
12957;DHT22;6543;48.836;10.092;2023-02-26T13:00:36;1.10;99.90
12957;DHT22;6543;48.836;10.092;2023-02-26T13:03:32;1.20;99.90
12957;DHT22;6543;48.836;10.092;2023-02-26T13:06:21;1.20;99.90
12957;DHT22;6543;48.836;10.092;2023-02-26T13:08:54;1.30;99.90
12957;DHT22;6543;48.836;10.092;2023-02-26T13:11:49;1.30;99.90
12957;DHT22;6543;48.836;10.092;2023-02-26T13:14:32;1.30;99.90
12957;DHT22;6543;48.836;10.092;2023-02-26T13:17:06;1.50;99.90
12957;DHT22;6543;48.836;10.092;2023-02-26T13:19:41;1.60;99.90
12957;DHT22;6543;48.836;10.092;2023-02-26T13:22:16;1.70;99.90
12957;DHT22;6543;48.836;10.092;2023-02-26T13:24:46;1.70;99.90
12957;DHT22;6543;48.836;10.092;2023-02-26T13:27:16;1.70;99.90
12957;DHT22;6543;48.836;10.092;2023-02-26T13:29:48;1.50;99.90
12957;DHT22;6543;48.836;10.092;2023-02-26T13:32:21;1.40;99.90
12957;DHT22;6543;48.836;10.092;2023-02-26T13:34:51;1.40;99.90
12957;DHT22;6543;48.836;10.092;2023-02-26T13:37:23;1.60;99.90
12957;DHT22;6543;48.836;10.092;2023-02-26T13:40:00;1.50;99.90
12957;DHT22;6543;48.836;10.092;2023-02-26T13:42:37;2.20;99.90
12957;DHT22;6543;48.836;10.092;2023-02-26T13:45:33;2.20;99.90
12957;DHT22;6543;48.836;10.092;2023-02-26T13:48:08;1.20;99.90
12957;DHT22;6543;48.836;10.092;2023-02-26T13:50:43;2.30;99.90
12957;DHT22;6543;48.836;10.092;2023-02-26T13:56:20;1.20;99.90
12957;DHT22;6543;48.836;10.092;2023-02-26T13:58:51;1.20;99.90
12957;DHT22;6543;48.836;10.092;2023-02-26T14:01:26;1.20;99.90
12957;DHT22;6543;48.836;10.092;2023-02-26T14:04:08;1.30;99.90
12957;DHT22;6543;48.836;10.092;2023-02-26T14:06:49;1.40;99.90
12957;DHT22;6543;48.836;10.092;2023-02-26T14:09:36;1.50;99.90
12957;DHT22;6543;48.836;10.092;2023-02-26T14:12:34;1.80;99.90
12957;DHT22;6543;48.836;10.092;2023-02-26T14:15:30;1.60;99.90
12957;DHT22;6543;48.836;10.092;2023-02-26T14:18:04;1.40;99.90
12957;DHT22;6543;48.836;10.092;2023-02-26T14:20:34;1.50;99.90
12957;DHT22;6543;48.836;10.092;2023-02-26T14:23:20;1.50;99.90
12957;DHT22;6543;48.836;10.092;2023-02-26T14:25:50;1.50;99.90
12957;DHT22;6543;48.836;10.092;2023-02-26T14:28:40;1.40;99.90
12957;DHT22;6543;48.836;10.092;2023-02-26T14:31:16;1.50;99.90
12957;DHT22;6543;48.836;10.092;2023-02-26T14:33:47;1.60;99.90
12957;DHT22;6543;48.836;10.092;2023-02-26T14:36:41;1.70;99.90
12957;DHT22;6543;48.836;10.092;2023-02-26T14:39:24;1.60;99.90
12957;DHT22;6543;48.836;10.092;2023-02-26T14:41:57;1.00;99.90
12957;DHT22;6543;48.836;10.092;2023-02-26T14:44:26;0.10;99.90
12957;DHT22;6543;48.836;10.092;2023-02-26T14:46:53;-0.30;99.90
12957;DHT22;6543;48.836;10.092;2023-02-26T14:49:25;-0.40;99.90
12957;DHT22;6543;48.836;10.092;2023-02-26T14:55:17;-0.10;99.90
12957;DHT22;6543;48.836;10.092;2023-02-26T14:57:52;0.10;99.90
12957;DHT22;6543;48.836;10.092;2023-02-26T15:00:30;0.30;99.90
12957;DHT22;6543;48.836;10.092;2023-02-26T15:03:27;0.50;99.90
12957;DHT22;6543;48.836;10.092;2023-02-26T15:09:05;0.90;99.90
12957;DHT22;6543;48.836;10.092;2023-02-26T15:11:54;1.10;99.90
12957;DHT22;6543;48.836;10.092;2023-02-26T15:14:39;1.60;99.90
12957;DHT22;6543;48.836;10.092;2023-02-26T15:17:19;1.20;99.90
12957;DHT22;6543;48.836;10.092;2023-02-26T15:20:03;2.20;99.90
12957;DHT22;6543;48.836;10.092;2023-02-26T15:22:51;1.10;99.90
12957;DHT22;6543;48.836;10.092;2023-02-26T15:25:27;1.10;99.90
12957;DHT22;6543;48.836;10.092;2023-02-26T15:27:55;1.10;99.90
12957;DHT22;6543;48.836;10.092;2023-02-26T15:30:22;1.20;99.90
12957;DHT22;6543;48.836;10.092;2023-02-26T15:32:55;1.10;99.90
12957;DHT22;6543;48.836;10.092;2023-02-26T15:35:22;0.90;99.90
12957;DHT22;6543;48.836;10.092;2023-02-26T15:37:52;1.00;99.90
12957;DHT22;6543;48.836;10.092;2023-02-26T15:40:21;0.90;99.90
12957;DHT22;6543;48.836;10.092;2023-02-26T15:42:52;1.00;99.90
12957;DHT22;6543;48.836;10.092;2023-02-26T15:45:24;1.00;99.90
12957;DHT22;6543;48.836;10.092;2023-02-26T15:47:56;0.90;99.90
12957;DHT22;6543;48.836;10.092;2023-02-26T15:50:26;0.90;99.90
12957;DHT22;6543;48.836;10.092;2023-02-26T15:52:58;1.00;99.90
12957;DHT22;6543;48.836;10.092;2023-02-26T15:55:28;0.90;99.90
12957;DHT22;6543;48.836;10.092;2023-02-26T15:57:56;1.30;99.90
12957;DHT22;6543;48.836;10.092;2023-02-26T16:00:24;0.90;99.90
12957;DHT22;6543;48.836;10.092;2023-02-26T16:02:52;0.90;99.90
12957;DHT22;6543;48.836;10.092;2023-02-26T16:05:22;1.00;99.90
12957;DHT22;6543;48.836;10.092;2023-02-26T16:07:49;0.90;99.90
12957;DHT22;6543;48.836;10.092;2023-02-26T16:10:26;2.20;99.90
12957;DHT22;6543;48.836;10.092;2023-02-26T16:12:55;0.90;99.90
12957;DHT22;6543;48.836;10.092;2023-02-26T16:15:26;2.80;99.90
12957;DHT22;6543;48.836;10.092;2023-02-26T16:17:55;0.80;99.90
12957;DHT22;6543;48.836;10.092;2023-02-26T16:20:25;0.80;99.90
12957;DHT22;6543;48.836;10.092;2023-02-26T16:22:56;1.50;99.90
12957;DHT22;6543;48.836;10.092;2023-02-26T16:25:29;1.60;99.90
12957;DHT22;6543;48.836;10.092;2023-02-26T16:27:57;0.70;99.90
12957;DHT22;6543;48.836;10.092;2023-02-26T16:30:37;0.70;99.90
12957;DHT22;6543;48.836;10.092;2023-02-26T16:33:30;0.70;99.90
12957;DHT22;6543;48.836;10.092;2023-02-26T16:36:20;0.50;99.90
12957;DHT22;6543;48.836;10.092;2023-02-26T16:39:10;0.30;99.90